Airfield :







YOU CAN JOIN US ON...

 
LOGIN :

Register | Disclaimer

   EN    FR    IT 

 









Legend :    VFR   Marginal VFR   IFR   Intensive IFR   Very Intensive IFR
Visi :
Ceiling :
>= 8 km
>= 3000ft
5 to 8 km
1000 to 3000 ft
1500m to 5 km
500 to 1000 ft
800 to 1500m
200 to 500 ft
< 800m
< 200 ft
Symbols :   Thunderstorms  Fog  Heavy snow  Heavy precipitations  Wind > 20 kt







- Airport Elevation : 550 ft
- IATA code : YOY


CYOY - C J.H.L.(Joe) Lecomte) Heliport

CURRENT METAR :
  • 211736Z 00000KT 7SM -SN OVC013 M06/M08 A2965 RMK SC8 DA-1518FT PCPN VRY LGT SLP053

EXPIRED METARs :
  • 211700Z 00000KT 5SM -SN OVC015 M06/M07 A2965 RMK SC8 DA-1504FT SLP053
  • 211649Z 00000KT 2 1/4SM -SN OVC013 M06/M07 A2965 RMK SC8 DA-1542FT SLP052
  • 211600Z CCA 36003KT 3SM -SN OVC015 M07/M08 A2966 RMK SC8 DA-1713FT /S02/ SLP060
  • 211523Z 36002KT 4SM -SN OVC017 M07/M08 A2967 RMK SC8 DA-1712FT SLP063
  • 211500Z 09002KT 3SM -SN OVC011 M07/M08 A2969 RMK ST8 DA-1709FT SLP068
  • 211446Z 11002KT 2 1/4SM -SN OVC011 M07/M08 A2969 RMK ST8 DA-1749FT SLP069

TAF TAF CYOY
Valid from the 21 at 18:00 until the 22 at 06:00 UTC


211730Z 2118/2206 VRB03KT P6SM -SN OVC025
TEMPO 2118/2121 4SM -SN OVC015
FM220000 29005KT P6SM BKN030
BECMG 2204/2206 SCT030 RMK FCST BASED ON AUTO OBS 220100-220600Z. NXT FCST BY 220000Z
CZUL FIR / North America



MET'MAP, your aeronautical weather chart ! - Copyright ORBIFLY December 2007 - Disclaimer

ORBIFLY MET'MAP TEAM :

Programming & Development : Alexandra Zaïnal
Concept & Development : Baudouin d'Aumeries
Co-Development & Prog : Marc-Olivier Méhu
Technical & hardware support : Manuel Goepfert

Contact : metmap@orbifly.com




SOURCES & CREDITS :

   NOAA